Massey, Canada
Current Conditions -  °F | °C
As of 8:00 PM on Tuesday 21 Oct 2014 (Local Time) from CYZE Reporting Station
Broken Clouds Broken Clouds  
Wind Chill: 32°   Ceiling: 2700
Heat Index: 39°   Visibility: 9mi
Dew Point: 30°   Wind: 13mph
Humidity: 70%   Direction: 50°NE
Pressure: 30.26"   Gusts: 18mph
Location:  46.21°N, 82.08°W
Report Text: CYZE 220000Z AUTO 05011G16KT 9SM BKN027 04/M01 A3026 RMK SLP255
Loading
Personal Weather Stations






























Interactive Weather Map
Tropical Storm Tracking
New forecast layout! Learn more

10-Day Weather Forecast

Advertisements
Track Severe Weather on mobile